createdAt,value
2019-04-19T00:02:15.872Z,7.20
2019-04-19T00:04:51.553Z,7.10
2019-04-19T00:07:21.486Z,7.00
2019-04-19T00:09:57.357Z,6.90
2019-04-19T00:12:34.509Z,6.90
2019-04-19T00:14:52.684Z,6.90
2019-04-19T00:17:25.180Z,6.90
2019-04-19T00:20:21.160Z,6.70
2019-04-19T00:22:38.651Z,6.80
2019-04-19T00:24:56.596Z,6.80
2019-04-19T00:27:31.948Z,6.80
2019-04-19T00:30:04.311Z,6.80
2019-04-19T00:32:42.992Z,6.80
2019-04-19T00:34:59.354Z,6.80
2019-04-19T00:37:29.051Z,6.80
2019-04-19T00:40:19.986Z,6.80
2019-04-19T00:42:57.202Z,6.70
2019-04-19T00:46:01.169Z,6.70
2019-04-19T00:48:32.951Z,6.60
2019-04-19T00:50:57.866Z,6.60
2019-04-19T00:53:25.191Z,6.50
2019-04-19T00:55:55.013Z,6.50
2019-04-19T00:58:23.597Z,6.50
2019-04-19T01:00:49.092Z,6.50
2019-04-19T01:03:26.562Z,6.50
2019-04-19T01:05:56.957Z,6.50
2019-04-19T01:08:24.045Z,6.50
2019-04-19T01:11:07.877Z,6.50
2019-04-19T01:13:37.838Z,6.40
2019-04-19T01:16:07.776Z,6.30
2019-04-19T01:18:41.158Z,6.30
2019-04-19T01:20:56.996Z,6.30
2019-04-19T01:23:26.918Z,6.40
2019-04-19T01:26:02.964Z,6.40
2019-04-19T01:28:29.299Z,6.40
2019-04-19T01:30:59.068Z,6.40
2019-04-19T01:33:37.337Z,6.40
2019-04-19T01:36:04.276Z,6.30
2019-04-19T01:38:40.956Z,6.20
2019-04-19T01:41:21.066Z,6.10
2019-04-19T01:43:56.342Z,6.10
2019-04-19T01:46:51.189Z,6.20
2019-04-19T01:49:40.005Z,6.20
2019-04-19T01:52:42.009Z,6.20
2019-04-19T01:54:54.434Z,6.10
2019-04-19T01:57:17.371Z,6.20
2019-04-19T01:59:50.803Z,6.10
2019-04-19T02:02:21.309Z,6.00
2019-04-19T02:04:53.022Z,6.00
2019-04-19T02:07:25.021Z,6.00
2019-04-19T02:10:04.016Z,6.00
2019-04-19T02:12:34.615Z,5.90
2019-04-19T02:14:59.516Z,5.90
2019-04-19T02:17:27.627Z,5.90
2019-04-19T02:20:00.567Z,5.90
2019-04-19T02:22:32.762Z,5.90
2019-04-19T02:25:00.449Z,5.90
2019-04-19T02:27:34.073Z,5.80
2019-04-19T02:30:09.539Z,5.90
2019-04-19T02:32:46.493Z,5.80
2019-04-19T02:35:26.351Z,5.70
2019-04-19T02:37:57.583Z,5.70
2019-04-19T02:42:59.711Z,5.60
2019-04-19T02:45:33.496Z,5.40
2019-04-19T02:48:03.716Z,5.40
2019-04-19T02:51:02.378Z,5.40
2019-04-19T02:53:12.511Z,5.50
2019-04-19T02:55:40.899Z,5.50
2019-04-19T02:58:15.447Z,5.40
2019-04-19T03:01:03.660Z,5.30
2019-04-19T03:03:27.477Z,5.20
2019-04-19T03:05:55.714Z,5.10
2019-04-19T03:08:08.418Z,5.20
2019-04-19T03:10:54.861Z,5.20
2019-04-19T03:13:25.558Z,5.20
2019-04-19T03:15:54.789Z,5.20
2019-04-19T03:18:30.655Z,5.20
2019-04-19T03:20:55.545Z,5.20
2019-04-19T03:23:26.348Z,5.20
2019-04-19T03:25:54.597Z,5.20
2019-04-19T03:28:26.130Z,5.20
2019-04-19T03:31:18.678Z,5.10
2019-04-19T03:36:05.305Z,5.00
2019-04-19T03:38:40.461Z,4.90
2019-04-19T03:41:27.350Z,4.90
2019-04-19T03:43:48.899Z,4.70
2019-04-19T03:46:28.455Z,4.60
2019-04-19T03:48:48.751Z,4.60
2019-04-19T03:51:18.487Z,4.60
2019-04-19T03:56:23.340Z,4.60
2019-04-19T03:58:35.549Z,4.70
2019-04-19T04:01:06.525Z,4.70
2019-04-19T04:03:40.845Z,4.70
2019-04-19T04:06:08.303Z,4.60
2019-04-19T04:08:46.100Z,4.50
2019-04-19T04:11:29.951Z,4.50
2019-04-19T04:14:29.139Z,4.60
2019-04-19T04:17:05.815Z,4.60
2019-04-19T04:19:35.639Z,4.50
2019-04-19T04:22:07.632Z,4.60
2019-04-19T04:24:44.893Z,4.60
2019-04-19T04:27:14.813Z,4.60
2019-04-19T04:29:44.557Z,4.60
2019-04-19T04:32:17.830Z,4.60
2019-04-19T04:34:49.681Z,4.60
2019-04-19T04:37:24.776Z,4.60
2019-04-19T04:39:43.059Z,4.60
2019-04-19T04:42:22.331Z,4.70
2019-04-19T04:45:09.302Z,4.70
2019-04-19T04:47:53.820Z,4.70
2019-04-19T04:51:00.517Z,4.70
2019-04-19T04:53:17.355Z,4.80
2019-04-19T04:55:56.987Z,4.90
2019-04-19T04:58:26.740Z,5.00
2019-04-19T05:01:00.077Z,5.00
2019-04-19T05:03:46.512Z,5.00
2019-04-19T05:06:11.108Z,5.10
2019-04-19T05:08:45.143Z,5.20
2019-04-19T05:11:18.861Z,5.20
2019-04-19T05:13:51.184Z,5.30
2019-04-19T05:16:28.729Z,5.40
2019-04-19T05:18:45.312Z,5.50
2019-04-19T05:21:17.967Z,5.50
2019-04-19T05:23:55.536Z,5.60
2019-04-19T05:26:33.764Z,5.70
2019-04-19T05:28:50.182Z,5.70
2019-04-19T05:31:08.980Z,5.80
2019-04-19T05:33:47.463Z,5.90
2019-04-19T05:36:27.869Z,6.00
2019-04-19T05:39:08.976Z,6.20
2019-04-19T05:41:41.668Z,6.70
2019-04-19T05:46:55.843Z,10.40
2019-04-19T05:49:22.004Z,12.40
2019-04-19T05:51:53.902Z,14.10
2019-04-19T05:54:09.728Z,15.40
2019-04-19T05:56:43.555Z,16.60
2019-04-19T05:59:15.998Z,17.50
2019-04-19T06:01:56.496Z,18.40
2019-04-19T06:04:26.138Z,19.10
2019-04-19T06:07:05.096Z,19.80
2019-04-19T06:09:13.078Z,20.50
2019-04-19T06:11:44.687Z,21.00
2019-04-19T06:14:40.876Z,21.50
2019-04-19T06:17:22.945Z,22.10
2019-04-19T06:19:51.633Z,22.60
2019-04-19T06:22:18.793Z,23.10
2019-04-19T06:24:57.039Z,23.50
2019-04-19T06:27:35.620Z,23.70
2019-04-19T06:30:05.855Z,24.00
2019-04-19T06:32:33.685Z,24.40
2019-04-19T06:34:54.174Z,24.70
2019-04-19T06:37:19.377Z,24.90
2019-04-19T06:39:45.886Z,25.20
2019-04-19T06:42:16.951Z,25.30
2019-04-19T06:45:07.715Z,25.40
2019-04-19T06:47:25.802Z,25.60
2019-04-19T06:49:51.351Z,25.40
2019-04-19T06:52:24.785Z,25.10
2019-04-19T06:54:51.723Z,24.40
2019-04-19T06:57:27.275Z,23.90
2019-04-19T07:00:06.085Z,23.00
2019-04-19T07:02:24.187Z,22.50
2019-04-19T07:05:08.841Z,22.50
2019-04-19T07:07:42.106Z,22.40
2019-04-19T07:10:27.710Z,22.20
2019-04-19T07:12:50.459Z,22.00
2019-04-19T07:15:25.978Z,21.60
2019-04-19T07:17:42.283Z,21.40
2019-04-19T07:20:14.870Z,21.30
2019-04-19T07:22:47.015Z,21.30
2019-04-19T07:25:31.779Z,21.10
2019-04-19T07:27:45.650Z,20.50
2019-04-19T07:30:07.283Z,20.20
2019-04-19T07:32:43.864Z,20.40
2019-04-19T07:35:29.691Z,20.40
2019-04-19T07:37:58.690Z,20.30
2019-04-19T07:40:31.522Z,20.70
2019-04-19T07:43:03.628Z,21.10
2019-04-19T07:46:02.894Z,21.40
2019-04-19T07:48:34.607Z,21.70
2019-04-19T07:51:12.962Z,21.50
2019-04-19T07:53:40.645Z,20.80
2019-04-19T07:56:17.624Z,20.10
2019-04-19T08:06:53.873Z,19.80
2019-04-19T08:14:17.450Z,19.60
2019-04-19T08:29:05.218Z,18.60
2019-04-19T08:31:23.189Z,18.80
2019-04-19T08:33:53.253Z,18.90
2019-04-19T08:36:28.748Z,18.90
2019-04-19T08:39:14.060Z,18.90
2019-04-19T08:41:39.431Z,19.20
2019-04-19T08:44:16.376Z,19.30
2019-04-19T08:46:32.629Z,19.30
2019-04-19T08:49:23.807Z,19.40
2019-04-19T08:51:46.817Z,19.40
2019-04-19T08:54:36.769Z,19.50
2019-04-19T08:56:54.509Z,19.40
2019-04-19T08:59:44.347Z,19.40
2019-04-19T09:02:10.765Z,19.50
2019-04-19T09:04:39.788Z,19.20
2019-04-19T09:07:43.425Z,19.00
2019-04-19T09:10:00.064Z,19.00
2019-04-19T09:12:12.258Z,19.30
2019-04-19T09:14:50.033Z,19.50
2019-04-19T09:17:20.820Z,19.70
2019-04-19T09:20:28.060Z,19.90
2019-04-19T09:22:21.165Z,19.80
2019-04-19T09:24:57.148Z,19.80
2019-04-19T09:27:41.742Z,20.00
2019-04-19T09:30:11.521Z,20.00
2019-04-19T09:32:31.226Z,20.10
2019-04-19T09:35:01.809Z,20.00
2019-04-19T09:37:41.615Z,19.80
2019-04-19T09:40:06.267Z,19.90
2019-04-19T09:42:44.731Z,20.10
2019-04-19T09:45:03.716Z,19.90
2019-04-19T09:47:33.244Z,19.80
2019-04-19T09:50:15.629Z,20.10
2019-04-19T09:52:55.592Z,20.30
2019-04-19T09:55:26.651Z,20.50
2019-04-19T09:58:00.046Z,20.60
2019-04-19T10:00:17.437Z,20.80
2019-04-19T10:02:47.101Z,21.00
2019-04-19T10:05:12.737Z,20.90
2019-04-19T10:07:42.985Z,21.20
2019-04-19T10:10:14.788Z,21.10
2019-04-19T10:12:43.773Z,21.10
2019-04-19T10:15:38.443Z,21.20
2019-04-19T10:18:07.928Z,21.30
2019-04-19T10:20:49.346Z,21.40
2019-04-19T10:23:19.705Z,21.40
2019-04-19T10:25:55.963Z,21.50
2019-04-19T10:28:23.686Z,21.90
2019-04-19T10:31:11.525Z,22.50
2019-04-19T10:33:50.129Z,22.80
2019-04-19T10:36:12.779Z,22.60
2019-04-19T10:38:43.410Z,22.30
2019-04-19T10:41:13.693Z,22.40
2019-04-19T10:43:43.338Z,22.50
2019-04-19T10:46:13.134Z,22.20
2019-04-19T10:48:55.564Z,22.00
2019-04-19T10:51:33.356Z,22.00
2019-04-19T10:54:02.865Z,22.10
2019-04-19T10:56:54.374Z,22.50
2019-04-19T10:59:24.706Z,22.80
2019-04-19T11:01:54.249Z,22.50
2019-04-19T11:04:24.714Z,22.60
2019-04-19T11:06:55.728Z,22.70
2019-04-19T11:09:25.206Z,22.80
2019-04-19T11:11:55.348Z,22.80
2019-04-19T11:14:25.902Z,22.80
2019-04-19T11:16:55.711Z,22.60
2019-04-19T11:19:44.656Z,22.60
2019-04-19T11:21:56.708Z,22.90
2019-04-19T11:24:26.137Z,23.10
2019-04-19T11:26:57.014Z,23.20
2019-04-19T11:29:26.515Z,22.60
2019-04-19T11:32:06.038Z,22.10
2019-04-19T11:34:36.003Z,22.00
2019-04-19T11:37:05.489Z,22.20
2019-04-19T11:39:35.040Z,22.40
2019-04-19T11:42:05.322Z,22.30
2019-04-19T11:44:35.838Z,22.10
2019-04-19T11:47:06.805Z,22.40
2019-04-19T11:49:40.231Z,22.80
2019-04-19T11:52:11.238Z,22.80
2019-04-19T11:54:40.693Z,22.70
2019-04-19T11:57:18.759Z,22.50
2019-04-19T12:00:06.173Z,22.30
2019-04-19T12:02:46.240Z,22.10
2019-04-19T12:05:22.861Z,22.40
2019-04-19T12:07:48.255Z,22.70
2019-04-19T12:10:18.753Z,22.90
2019-04-19T12:12:48.784Z,22.80
2019-04-19T12:15:19.807Z,22.60
2019-04-19T12:17:50.390Z,22.50
2019-04-19T12:20:21.298Z,22.30
2019-04-19T12:22:51.592Z,22.10
2019-04-19T12:25:21.580Z,22.20
2019-04-19T12:27:51.904Z,22.30
2019-04-19T12:30:23.078Z,22.40
2019-04-19T12:32:55.394Z,22.70
2019-04-19T12:35:25.272Z,22.50
2019-04-19T12:37:57.466Z,22.40
2019-04-19T12:40:26.002Z,22.50
2019-04-19T12:42:56.090Z,22.80
2019-04-19T12:45:26.220Z,22.80
2019-04-19T12:48:14.885Z,23.20
2019-04-19T12:50:45.117Z,23.30
2019-04-19T12:53:14.892Z,23.00
2019-04-19T12:55:46.135Z,23.00
2019-04-19T12:58:17.382Z,22.60
2019-04-19T13:01:05.887Z,22.10
2019-04-19T13:04:12.987Z,22.20
2019-04-19T13:07:02.145Z,22.30
2019-04-19T13:09:32.948Z,22.60
2019-04-19T13:12:03.130Z,22.70
2019-04-19T13:14:33.389Z,22.40
2019-04-19T13:17:04.133Z,22.50
2019-04-19T13:19:33.814Z,22.70
2019-04-19T13:22:03.260Z,22.70
2019-04-19T13:24:32.718Z,22.60
2019-04-19T13:27:03.183Z,22.50
2019-04-19T13:29:33.533Z,22.10
2019-04-19T13:32:03.792Z,21.70
2019-04-19T13:34:33.521Z,21.70
2019-04-19T13:37:19.392Z,22.00
2019-04-19T13:40:04.045Z,22.20
2019-04-19T13:42:37.153Z,22.20
2019-04-19T13:45:17.881Z,22.20
2019-04-19T13:47:40.713Z,22.10
2019-04-19T13:50:21.388Z,21.90
2019-04-19T13:52:44.264Z,21.40
2019-04-19T13:55:14.812Z,21.50
2019-04-19T13:57:44.318Z,21.90
2019-04-19T14:00:20.450Z,21.80
2019-04-19T14:02:49.925Z,21.90
2019-04-19T14:05:19.820Z,22.10
2019-04-19T14:07:49.346Z,22.20
2019-04-19T14:10:19.118Z,21.70
2019-04-19T14:12:49.229Z,21.50
2019-04-19T14:15:18.693Z,21.30
2019-04-19T14:17:48.190Z,21.30
2019-04-19T14:20:27.609Z,21.40
2019-04-19T14:22:49.699Z,21.50
2019-04-19T14:25:21.110Z,21.40
2019-04-19T14:27:51.232Z,21.40
2019-04-19T14:30:21.492Z,21.50
2019-04-19T14:32:50.955Z,21.50
2019-04-19T14:35:21.691Z,21.40
2019-04-19T14:37:52.026Z,21.50
2019-04-19T14:40:23.748Z,21.60
2019-04-19T14:42:54.169Z,21.60
2019-04-19T14:45:28.188Z,21.60
2019-04-19T14:47:57.715Z,21.50
2019-04-19T14:50:40.317Z,21.50
2019-04-19T14:52:59.469Z,21.60
2019-04-19T14:55:29.775Z,21.60
2019-04-19T14:57:59.301Z,21.40
2019-04-19T15:00:30.617Z,21.30
2019-04-19T15:03:09.294Z,21.20
2019-04-19T15:05:41.642Z,20.90
2019-04-19T15:08:11.127Z,20.70
2019-04-19T15:10:41.757Z,20.70
2019-04-19T15:13:12.570Z,20.90
2019-04-19T15:15:43.559Z,20.90
2019-04-19T15:18:13.212Z,20.90
2019-04-19T15:20:53.916Z,21.00
2019-04-19T15:23:14.222Z,21.00
2019-04-19T15:25:44.595Z,20.90
2019-04-19T15:28:15.095Z,20.90
2019-04-19T15:30:45.993Z,20.70
2019-04-19T15:33:16.377Z,20.70
2019-04-19T15:35:45.965Z,20.80
2019-04-19T15:38:16.086Z,20.80
2019-04-19T15:40:45.873Z,20.60
2019-04-19T15:43:15.562Z,20.60
2019-04-19T15:45:45.440Z,20.50
2019-04-19T15:48:26.710Z,20.50
2019-04-19T15:50:47.600Z,20.50
2019-04-19T15:53:18.112Z,20.50
2019-04-19T15:55:48.568Z,20.50
2019-04-19T15:58:18.178Z,20.50
2019-04-19T16:00:58.510Z,20.60
2019-04-19T16:04:05.911Z,20.60
2019-04-19T16:06:43.855Z,20.60
2019-04-19T16:09:33.247Z,20.50
2019-04-19T16:12:08.085Z,20.50
2019-04-19T16:14:37.935Z,20.40
2019-04-19T16:17:07.795Z,20.30
2019-04-19T16:19:39.943Z,20.30
2019-04-19T16:22:08.935Z,20.20
2019-04-19T16:24:39.023Z,20.20
2019-04-19T16:27:08.958Z,20.10
2019-04-19T16:29:45.802Z,20.00
2019-04-19T16:32:10.013Z,19.90
2019-04-19T16:34:39.475Z,19.90
2019-04-19T16:37:08.891Z,19.80
2019-04-19T16:39:39.886Z,19.80
2019-04-19T16:42:09.363Z,19.70
2019-04-19T16:44:38.777Z,19.60
2019-04-19T16:47:09.059Z,19.60
2019-04-19T16:49:38.910Z,19.50
2019-04-19T16:52:08.865Z,19.50
2019-04-19T16:54:38.452Z,19.40
2019-04-19T16:57:16.794Z,19.30
2019-04-19T16:59:39.719Z,19.30
2019-04-19T17:02:10.922Z,19.30
2019-04-19T17:04:40.864Z,19.20
2019-04-19T17:07:10.458Z,19.20
2019-04-19T17:09:40.822Z,19.10
2019-04-19T17:12:10.449Z,19.10
2019-04-19T17:14:41.011Z,18.90
2019-04-19T17:17:18.445Z,18.80
2019-04-19T17:19:52.926Z,18.70
2019-04-19T17:22:36.792Z,18.70
2019-04-19T17:25:09.217Z,18.60
2019-04-19T17:27:39.278Z,18.50
2019-04-19T17:30:12.691Z,18.50
2019-04-19T17:32:42.287Z,18.40
2019-04-19T17:35:12.299Z,18.40
2019-04-19T17:37:42.361Z,18.40
2019-04-19T17:40:12.145Z,18.40
2019-04-19T17:42:42.372Z,18.30
2019-04-19T17:45:13.536Z,18.20
2019-04-19T17:47:44.503Z,18.20
2019-04-19T17:50:14.561Z,18.20
2019-04-19T17:52:44.390Z,18.20
2019-04-19T17:55:25.069Z,18.10
2019-04-19T17:57:45.378Z,18.10
2019-04-19T18:00:16.425Z,18.10
2019-04-19T18:02:46.851Z,18.00
2019-04-19T18:05:16.428Z,17.90
2019-04-19T18:07:50.064Z,17.90
2019-04-19T18:10:20.317Z,17.80
2019-04-19T18:12:49.535Z,17.70
2019-04-19T18:15:19.698Z,17.60
2019-04-19T18:17:56.550Z,17.60
2019-04-19T18:20:22.958Z,17.40
2019-04-19T18:23:01.958Z,17.40
2019-04-19T18:25:27.448Z,17.30
2019-04-19T18:27:57.168Z,17.10
2019-04-19T18:30:26.321Z,17.00
2019-04-19T18:33:08.645Z,17.00
2019-04-19T18:35:39.196Z,16.90
2019-04-19T18:38:15.618Z,16.80
2019-04-19T18:40:40.209Z,16.70
2019-04-19T18:43:22.242Z,16.60
2019-04-19T18:45:42.375Z,16.50
2019-04-19T18:48:13.437Z,16.40
2019-04-19T18:50:47.977Z,16.30
2019-04-19T18:53:22.928Z,16.20
2019-04-19T18:55:48.565Z,16.10
2019-04-19T18:58:21.294Z,16.00
2019-04-19T19:00:49.971Z,15.90
2019-04-19T19:03:19.580Z,15.80
2019-04-19T19:05:55.661Z,15.80
2019-04-19T19:08:25.755Z,15.70
2019-04-19T19:10:53.659Z,15.60
2019-04-19T19:13:28.857Z,15.50
2019-04-19T19:15:57.584Z,15.40
2019-04-19T19:18:32.442Z,15.30
2019-04-19T19:21:00.156Z,15.30
2019-04-19T19:23:43.273Z,15.20
2019-04-19T19:26:12.117Z,15.10
2019-04-19T19:28:31.640Z,15.00
2019-04-19T19:31:03.192Z,14.90
2019-04-19T19:33:39.103Z,14.80
2019-04-19T19:36:05.022Z,14.70
2019-04-19T19:38:38.202Z,14.70
2019-04-19T19:41:24.328Z,14.60
2019-04-19T19:43:50.862Z,14.50
2019-04-19T19:46:34.288Z,14.40
2019-04-19T19:49:18.708Z,14.30
2019-04-19T19:51:28.256Z,14.20
2019-04-19T19:54:29.799Z,14.10
2019-04-19T19:56:43.350Z,14.10
2019-04-19T19:59:06.452Z,14.00
2019-04-19T20:01:32.956Z,13.90
2019-04-19T20:03:54.463Z,13.80
2019-04-19T20:06:27.607Z,13.70
2019-04-19T20:08:57.460Z,13.70
2019-04-19T20:11:30.899Z,13.60
2019-04-19T20:14:01.020Z,13.50
2019-04-19T20:16:31.570Z,13.40
2019-04-19T20:19:02.094Z,13.30
2019-04-19T20:21:32.397Z,13.30
2019-04-19T20:24:12.819Z,13.20
2019-04-19T20:26:40.690Z,13.10
2019-04-19T20:29:11.551Z,13.00
2019-04-19T20:31:37.922Z,12.90
2019-04-19T20:34:07.176Z,12.80
2019-04-19T20:36:40.467Z,12.70
2019-04-19T20:39:09.455Z,12.70
2019-04-19T20:41:45.732Z,12.60
2019-04-19T20:44:27.388Z,12.50
2019-04-19T20:46:42.177Z,12.40
2019-04-19T20:49:13.345Z,12.40
2019-04-19T20:51:56.822Z,12.30
2019-04-19T20:54:44.614Z,12.20
2019-04-19T20:57:27.221Z,12.10
2019-04-19T20:59:45.575Z,12.10
2019-04-19T21:02:17.409Z,11.90
2019-04-19T21:04:49.163Z,11.80
2019-04-19T21:07:15.324Z,11.80
2019-04-19T21:09:43.418Z,11.70
2019-04-19T21:12:17.070Z,11.60
2019-04-19T21:14:45.841Z,11.50
2019-04-19T21:17:16.494Z,11.40
2019-04-19T21:19:48.753Z,11.40
2019-04-19T21:22:23.766Z,11.30
2019-04-19T21:25:04.262Z,11.30
2019-04-19T21:27:25.815Z,11.20
2019-04-19T21:29:52.150Z,11.20
2019-04-19T21:32:27.691Z,11.20
2019-04-19T21:34:52.853Z,11.10
2019-04-19T21:37:31.192Z,10.90
2019-04-19T21:39:55.858Z,10.90
2019-04-19T21:42:25.616Z,10.70
2019-04-19T21:45:00.781Z,10.70
2019-04-19T21:47:28.153Z,10.70
2019-04-19T21:50:00.116Z,10.70
2019-04-19T21:52:29.109Z,10.60
2019-04-19T21:55:14.640Z,10.60
2019-04-19T21:57:33.164Z,10.50
2019-04-19T22:00:05.309Z,10.40
2019-04-19T22:02:38.650Z,10.30
2019-04-19T22:05:06.042Z,10.30
2019-04-19T22:07:39.196Z,10.20
2019-04-19T22:10:05.809Z,10.20
2019-04-19T22:12:36.525Z,10.00
2019-04-19T22:15:10.083Z,9.90
2019-04-19T22:17:38.057Z,9.90
2019-04-19T22:20:12.690Z,9.80
2019-04-19T22:22:38.985Z,9.70
2019-04-19T22:25:11.971Z,9.60
2019-04-19T22:27:39.492Z,9.60
2019-04-19T22:30:09.674Z,9.50
2019-04-19T22:32:46.495Z,9.50
2019-04-19T22:35:16.629Z,9.50
2019-04-19T22:37:43.146Z,9.30
2019-04-19T22:40:12.895Z,9.20
2019-04-19T22:42:51.389Z,9.20
2019-04-19T22:45:16.403Z,9.10
2019-04-19T22:47:45.934Z,9.00
2019-04-19T22:50:21.015Z,8.90
2019-04-19T22:52:47.117Z,8.90
2019-04-19T22:55:18.250Z,8.80
2019-04-19T22:57:54.313Z,8.70
2019-04-19T23:00:19.360Z,8.70
2019-04-19T23:03:28.579Z,8.60
2019-04-19T23:05:54.812Z,8.60
2019-04-19T23:08:31.591Z,8.50
2019-04-19T23:11:00.164Z,8.40
2019-04-19T23:13:27.437Z,8.40
2019-04-19T23:16:02.648Z,8.30
2019-04-19T23:18:29.396Z,8.20
2019-04-19T23:21:05.534Z,8.00
2019-04-19T23:23:34.122Z,7.90
2019-04-19T23:26:19.424Z,7.80
2019-04-19T23:28:36.621Z,7.90
2019-04-19T23:31:09.345Z,7.80
2019-04-19T23:33:34.913Z,7.80
2019-04-19T23:36:12.895Z,7.90
2019-04-19T23:38:35.387Z,7.80
2019-04-19T23:41:04.805Z,7.80
2019-04-19T23:43:37.763Z,7.80
2019-04-19T23:46:08.551Z,7.90
2019-04-19T23:48:37.340Z,7.80
2019-04-19T23:51:08.399Z,7.80
2019-04-19T23:53:42.616Z,7.80
2019-04-19T23:56:19.894Z,7.80
2019-04-19T23:58:42.455Z,7.60
